Time;durP1;ratioP1;P1;durP2;ratioP2;P2;SDS_P1;SDS_P2;PMS_P1;PMS_P2;Temp;Humidity;BMP_temperature;BMP_pressure;BME280_temperature;BME280_humidity;BME280_pressure;Samples;Min_cycle;Max_cycle;Signal;HPM_P1;HPM_P2
2022/03/07 00:01:53;;;;;;;0.20;0.20;;;;;;;;;;5005572;28;20134;-81
2022/03/07 00:04:20;;;;;;;1.67;1.58;;;;;;;;;;5005373;28;20033;-81
2022/03/07 00:06:46;;;;;;;0.60;0.60;;;;;;;;;;5005381;28;20033;-81
2022/03/07 00:09:12;;;;;;;0.28;0.28;;;;;;;;;;5005601;28;20066;-80
2022/03/07 00:11:38;;;;;;;0.20;0.20;;;;;;;;;;5005937;28;20909;-80
2022/03/07 00:14:04;;;;;;;0.30;0.30;;;;;;;;;;5005358;28;20158;-81
2022/03/07 00:16:31;;;;;;;0.40;0.40;;;;;;;;;;5005340;28;20034;-81
2022/03/07 00:18:57;;;;;;;0.30;0.30;;;;;;;;;;5005355;28;20029;-80
2022/03/07 00:21:23;;;;;;;0.20;0.20;;;;;;;;;;4988268;28;20447;-80
2022/03/07 00:23:50;;;;;;;0.30;0.30;;;;;;;;;;5005893;28;20112;-80
2022/03/07 00:26:17;;;;;;;0.50;0.50;;;;;;;;;;5005566;28;20123;-80
2022/03/07 00:28:44;;;;;;;0.15;0.15;;;;;;;;;;5005396;28;20125;-80
2022/03/07 00:31:10;;;;;;;0.47;0.47;;;;;;;;;;5005377;28;20029;-80
2022/03/07 00:33:36;;;;;;;0.20;0.20;;;;;;;;;;5005426;28;20040;-80
2022/03/07 00:36:03;;;;;;;0.65;0.65;;;;;;;;;;5005051;28;20038;-80
2022/03/07 00:38:29;;;;;;;0.55;0.55;;;;;;;;;;5005981;28;20029;-80
2022/03/07 00:40:55;;;;;;;0.10;0.10;;;;;;;;;;5005352;28;20406;-80
2022/03/07 00:43:21;;;;;;;1.17;1.08;;;;;;;;;;5005128;28;20116;-80
2022/03/07 00:45:48;;;;;;;0.47;0.47;;;;;;;;;;5005064;28;20066;-80
2022/03/07 00:48:15;;;;;;;0.10;0.10;;;;;;;;;;5005081;28;20034;-80
2022/03/07 00:50:42;;;;;;;0.13;0.13;;;;;;;;;;5005280;28;20037;-80
2022/03/07 00:53:19;;;;;;;0.52;0.52;;;;;;;;;;5004521;28;20038;-81
2022/03/07 00:55:45;;;;;;;0.45;0.40;;;;;;;;;;5004884;28;20073;-80
2022/03/07 00:58:12;;;;;;;0.28;0.28;;;;;;;;;;5004611;28;20042;-80
2022/03/07 01:00:39;;;;;;;0.43;0.43;;;;;;;;;;5004755;28;20244;-80
2022/03/07 01:03:06;;;;;;;0.32;0.32;;;;;;;;;;5004618;28;20126;-80
2022/03/07 01:05:32;;;;;;;0.20;0.20;;;;;;;;;;5004749;28;20022;-80
2022/03/07 01:07:58;;;;;;;0.93;0.73;;;;;;;;;;5003441;28;20117;-80
2022/03/07 01:10:25;;;;;;;0.50;0.50;;;;;;;;;;5001083;28;20052;-80
2022/03/07 01:12:51;;;;;;;0.38;0.38;;;;;;;;;;4999483;28;20033;-80
2022/03/07 01:15:17;;;;;;;0.37;0.37;;;;;;;;;;5003488;28;20041;-80
2022/03/07 01:17:43;;;;;;;0.40;0.40;;;;;;;;;;5004102;28;20816;-80
2022/03/07 01:20:10;;;;;;;0.23;0.23;;;;;;;;;;5003697;28;20283;-80
2022/03/07 01:22:37;;;;;;;0.25;0.25;;;;;;;;;;5003848;28;20033;-79
2022/03/07 01:25:05;;;;;;;0.80;0.80;;;;;;;;;;5003439;28;20861;-80
2022/03/07 01:27:31;;;;;;;0.10;0.10;;;;;;;;;;5003720;28;20196;-80
2022/03/07 01:29:57;;;;;;;0.30;0.30;;;;;;;;;;5004175;28;20042;-80
2022/03/07 01:32:23;;;;;;;0.50;0.50;;;;;;;;;;5004003;28;20560;-80
2022/03/07 01:34:49;;;;;;;0.83;0.50;;;;;;;;;;5003928;28;20690;-79
2022/03/07 01:37:15;;;;;;;0.43;0.43;;;;;;;;;;5003439;28;20409;-79
2022/03/07 01:39:42;;;;;;;0.40;0.40;;;;;;;;;;5003333;28;20609;-82
2022/03/07 01:42:08;;;;;;;0.95;0.95;;;;;;;;;;5003488;28;20462;-81
2022/03/07 01:44:34;;;;;;;0.10;0.10;;;;;;;;;;5003816;28;20088;-81
2022/03/07 01:47:00;;;;;;;0.40;0.40;;;;;;;;;;5002951;28;20025;-81
2022/03/07 01:49:27;;;;;;;0.20;0.20;;;;;;;;;;4997921;28;20624;-80
2022/03/07 01:51:54;;;;;;;0.52;0.52;;;;;;;;;;4991663;28;20025;-81
2022/03/07 01:54:21;;;;;;;0.20;0.20;;;;;;;;;;5002990;28;20517;-83
2022/03/07 01:56:48;;;;;;;1.85;0.88;;;;;;;;;;4998490;28;20112;-83
2022/03/07 01:59:15;;;;;;;0.30;0.30;;;;;;;;;;5002097;28;20053;-83
2022/03/07 02:01:41;;;;;;;;;;;;;;;;;;5003401;28;20054;-80
2022/03/07 02:04:08;;;;;;;0.15;0.15;;;;;;;;;;5002554;28;20105;-80
2022/03/07 02:06:34;;;;;;;1.15;0.77;;;;;;;;;;4992076;28;20553;-81
2022/03/07 02:09:00;;;;;;;0.40;0.40;;;;;;;;;;4987673;28;20121;-81
2022/03/07 02:11:26;;;;;;;0.20;0.20;;;;;;;;;;5003606;28;20462;-81
2022/03/07 02:13:52;;;;;;;0.40;0.40;;;;;;;;;;5002762;28;20053;-82
2022/03/07 02:16:19;;;;;;;0.40;0.40;;;;;;;;;;5002838;28;20075;-82
2022/03/07 02:18:45;;;;;;;0.45;0.45;;;;;;;;;;5003085;28;20564;-82
2022/03/07 02:21:14;;;;;;;0.40;0.40;;;;;;;;;;5002187;28;20033;-82
2022/03/07 02:23:40;;;;;;;0.75;0.75;;;;;;;;;;4997684;28;20069;-81
2022/03/07 02:26:10;;;;;;;1.17;1.08;;;;;;;;;;5001363;28;20092;-81
2022/03/07 02:28:37;;;;;;;1.08;0.77;;;;;;;;;;5000950;28;20100;-81
2022/03/07 02:31:03;;;;;;;0.20;0.20;;;;;;;;;;4992086;28;20510;-81
2022/03/07 02:33:29;;;;;;;0.45;0.45;;;;;;;;;;5002915;28;20032;-81
2022/03/07 02:35:56;;;;;;;0.30;0.30;;;;;;;;;;4991869;28;20026;-80
2022/03/07 02:38:23;;;;;;;1.35;0.70;;;;;;;;;;5003001;28;20108;-80
2022/03/07 02:40:49;;;;;;;0.30;0.30;;;;;;;;;;5003232;28;20041;-80
2022/03/07 02:43:16;;;;;;;0.73;0.73;;;;;;;;;;5003138;28;20088;-80
2022/03/07 02:45:42;;;;;;;0.82;0.82;;;;;;;;;;5002764;28;20110;-80
2022/03/07 02:48:09;;;;;;;0.45;0.45;;;;;;;;;;5002911;28;20069;-80
2022/03/07 02:50:35;;;;;;;0.25;0.25;;;;;;;;;;4997957;28;20038;-80
2022/03/07 02:53:01;;;;;;;0.55;0.55;;;;;;;;;;5000310;28;20037;-80
2022/03/07 02:55:27;;;;;;;1.45;0.63;;;;;;;;;;5003028;28;20034;-81
2022/03/07 02:57:53;;;;;;;2.23;1.53;;;;;;;;;;5002416;28;20053;-81
2022/03/07 03:00:19;;;;;;;0.50;0.47;;;;;;;;;;5001231;28;20067;-81
2022/03/07 03:02:45;;;;;;;0.30;0.30;;;;;;;;;;5003423;28;20501;-81
2022/03/07 03:05:11;;;;;;;0.30;0.30;;;;;;;;;;5001471;28;20044;-82
2022/03/07 03:07:37;;;;;;;1.93;0.83;;;;;;;;;;5002574;28;20040;-75
2022/03/07 03:10:04;;;;;;;0.30;0.30;;;;;;;;;;4998556;28;20124;-75
2022/03/07 03:12:30;;;;;;;0.90;0.80;;;;;;;;;;5002868;28;20261;-76
2022/03/07 03:14:56;;;;;;;0.30;0.30;;;;;;;;;;5003214;28;20113;-76
2022/03/07 03:17:22;;;;;;;0.47;0.47;;;;;;;;;;5002631;28;20034;-77
2022/03/07 03:19:48;;;;;;;0.80;0.80;;;;;;;;;;5002507;28;20280;-76
2022/03/07 03:22:14;;;;;;;0.43;0.43;;;;;;;;;;5002122;28;20034;-77
2022/03/07 03:24:41;;;;;;;0.30;0.30;;;;;;;;;;5002709;28;20109;-76
2022/03/07 03:27:07;;;;;;;0.20;0.20;;;;;;;;;;5002341;28;20034;-76
2022/03/07 03:29:33;;;;;;;0.77;0.77;;;;;;;;;;4998889;28;20038;-77
2022/03/07 03:31:59;;;;;;;0.50;0.50;;;;;;;;;;5000822;28;20172;-77
2022/03/07 03:34:25;;;;;;;1.07;1.07;;;;;;;;;;5006296;28;20033;-78
2022/03/07 03:36:51;;;;;;;0.47;0.47;;;;;;;;;;5006044;28;20512;-77
2022/03/07 03:39:18;;;;;;;0.37;0.37;;;;;;;;;;5005875;28;20038;-77
2022/03/07 03:41:44;;;;;;;0.88;0.88;;;;;;;;;;5000310;28;20090;-76
2022/03/07 03:44:10;;;;;;;0.32;0.32;;;;;;;;;;5005179;28;20476;-76
2022/03/07 03:46:37;;;;;;;2.70;1.03;;;;;;;;;;5006037;28;20037;-76
2022/03/07 03:49:04;;;;;;;1.75;1.17;;;;;;;;;;5005802;28;20117;-77
2022/03/07 03:51:30;;;;;;;1.20;1.15;;;;;;;;;;5005734;28;20140;-80
2022/03/07 03:53:56;;;;;;;0.20;0.20;;;;;;;;;;5006009;28;20096;-80
2022/03/07 03:56:22;;;;;;;0.45;0.45;;;;;;;;;;5000872;28;20043;-80
2022/03/07 03:58:48;;;;;;;0.10;0.10;;;;;;;;;;5001279;28;20056;-77
2022/03/07 04:01:14;;;;;;;1.20;0.80;;;;;;;;;;5005864;28;20506;-77
2022/03/07 04:03:40;;;;;;;0.52;0.52;;;;;;;;;;5004032;28;20022;-79
2022/03/07 04:06:08;;;;;;;0.40;0.40;;;;;;;;;;5005745;28;20037;-78
2022/03/07 04:08:37;;;;;;;0.45;0.45;;;;;;;;;;5006061;28;20033;-79
2022/03/07 04:11:03;;;;;;;0.50;0.50;;;;;;;;;;5003619;28;20046;-76
2022/03/07 04:13:29;;;;;;;0.47;0.47;;;;;;;;;;5005194;28;20109;-76
2022/03/07 04:15:55;;;;;;;0.83;0.83;;;;;;;;;;5004839;28;20117;-76
2022/03/07 04:18:21;;;;;;;0.38;0.38;;;;;;;;;;5005056;28;20108;-79
2022/03/07 04:20:47;;;;;;;0.55;0.55;;;;;;;;;;5001751;28;20080;-79
2022/03/07 04:23:15;;;;;;;0.63;0.63;;;;;;;;;;4999110;28;20030;-78
2022/03/07 04:25:41;;;;;;;0.25;0.25;;;;;;;;;;5004810;28;20460;-78
2022/03/07 04:28:07;;;;;;;0.27;0.27;;;;;;;;;;5000162;28;20100;-77
2022/03/07 04:30:33;;;;;;;0.20;0.20;;;;;;;;;;5004890;28;20052;-77
2022/03/07 04:33:00;;;;;;;0.73;0.65;;;;;;;;;;5005088;28;20268;-77
2022/03/07 04:35:26;;;;;;;0.68;0.68;;;;;;;;;;5005115;28;20081;-76
2022/03/07 04:37:52;;;;;;;1.42;0.90;;;;;;;;;;5004535;28;20029;-77
2022/03/07 04:40:18;;;;;;;2.03;1.27;;;;;;;;;;5003825;28;20034;-77
2022/03/07 04:42:45;;;;;;;0.17;0.17;;;;;;;;;;5003724;28;20041;-77
2022/03/07 04:45:11;;;;;;;0.35;0.35;;;;;;;;;;5002825;28;20057;-77
2022/03/07 04:47:38;;;;;;;0.95;0.95;;;;;;;;;;5004049;28;20034;-77
2022/03/07 04:50:05;;;;;;;1.27;1.17;;;;;;;;;;5002446;28;20049;-77
2022/03/07 04:52:32;;;;;;;0.20;0.20;;;;;;;;;;5004183;28;20041;-77
2022/03/07 04:54:58;;;;;;;0.32;0.32;;;;;;;;;;5004193;28;20536;-76
2022/03/07 04:57:24;;;;;;;0.30;0.30;;;;;;;;;;4995739;28;20030;-78
2022/03/07 04:59:50;;;;;;;0.20;0.20;;;;;;;;;;5004693;28;20049;-78
2022/03/07 05:02:16;;;;;;;1.05;1.02;;;;;;;;;;5002772;28;20080;-78
2022/03/07 05:04:42;;;;;;;0.60;0.60;;;;;;;;;;5004100;28;20151;-77
2022/03/07 05:07:08;;;;;;;0.73;0.73;;;;;;;;;;5004537;28;20096;-77
2022/03/07 05:09:34;;;;;;;0.32;0.32;;;;;;;;;;5003982;28;20038;-77
2022/03/07 05:12:00;;;;;;;1.80;0.65;;;;;;;;;;5004266;28;20042;-77
2022/03/07 05:14:26;;;;;;;0.20;0.20;;;;;;;;;;5004268;28;20067;-76
2022/03/07 05:16:53;;;;;;;0.23;0.23;;;;;;;;;;5003848;28;20029;-76
2022/03/07 05:19:19;;;;;;;0.75;0.75;;;;;;;;;;4999251;28;20026;-77
2022/03/07 05:21:45;;;;;;;0.30;0.30;;;;;;;;;;5002738;28;20517;-77
2022/03/07 05:24:11;;;;;;;0.65;0.65;;;;;;;;;;5004284;28;20737;-77
2022/03/07 05:26:38;;;;;;;0.32;0.32;;;;;;;;;;4994061;28;20030;-77
2022/03/07 05:29:05;;;;;;;0.55;0.55;;;;;;;;;;5001099;28;20057;-78
2022/03/07 05:31:31;;;;;;;0.32;0.32;;;;;;;;;;5003812;28;20045;-77
2022/03/07 05:33:57;;;;;;;1.23;1.23;;;;;;;;;;5003585;28;20107;-78
2022/03/07 05:36:24;;;;;;;0.33;0.33;;;;;;;;;;5003610;28;20036;-78
2022/03/07 05:38:50;;;;;;;0.70;0.70;;;;;;;;;;5004378;28;20327;-79
2022/03/07 05:41:16;;;;;;;1.20;1.13;;;;;;;;;;4993676;28;20501;-79
2022/03/07 05:43:42;;;;;;;1.10;1.10;;;;;;;;;;4994516;28;20941;-81
2022/03/07 05:46:08;;;;;;;0.55;0.55;;;;;;;;;;4997711;28;20406;-81
2022/03/07 05:48:34;;;;;;;0.40;0.40;;;;;;;;;;5002965;28;20084;-79
2022/03/07 05:51:00;;;;;;;0.63;0.63;;;;;;;;;;5003077;28;20316;-77
2022/03/07 05:53:26;;;;;;;0.67;0.67;;;;;;;;;;5003941;28;20065;-78
2022/03/07 05:55:52;;;;;;;0.45;0.45;;;;;;;;;;5002145;28;20115;-78
2022/03/07 05:58:18;;;;;;;0.47;0.47;;;;;;;;;;4994254;28;20046;-79
2022/03/07 06:00:45;;;;;;;0.43;0.43;;;;;;;;;;5002871;28;20041;-77
2022/03/07 06:03:11;;;;;;;0.77;0.77;;;;;;;;;;5003246;28;20056;-80
2022/03/07 06:05:37;;;;;;;0.20;0.20;;;;;;;;;;5003532;28;20033;-83
2022/03/07 06:08:05;;;;;;;1.20;0.88;;;;;;;;;;4992364;28;20034;-80
2022/03/07 06:10:31;;;;;;;0.20;0.20;;;;;;;;;;4997821;28;20038;-81
2022/03/07 06:12:58;;;;;;;0.38;0.38;;;;;;;;;;5000832;28;20026;-79
2022/03/07 06:15:24;;;;;;;0.20;0.20;;;;;;;;;;4997696;28;20034;-79
2022/03/07 06:17:54;;;;;;;0.20;0.20;;;;;;;;;;5002349;28;20048;-79
2022/03/07 06:20:21;;;;;;;0.55;0.55;;;;;;;;;;4998796;28;20061;-79
2022/03/07 06:22:47;;;;;;;0.20;0.20;;;;;;;;;;4999217;28;20109;-79
2022/03/07 06:25:13;;;;;;;0.25;0.25;;;;;;;;;;4998658;28;20105;-79
2022/03/07 06:27:39;;;;;;;0.70;0.70;;;;;;;;;;5001688;28;20088;-84
2022/03/07 06:30:06;;;;;;;0.40;0.40;;;;;;;;;;5001194;28;20038;-81
2022/03/07 06:32:32;;;;;;;1.75;1.08;;;;;;;;;;5002254;28;20872;-80
2022/03/07 06:34:58;;;;;;;0.20;0.20;;;;;;;;;;5001753;28;20115;-80
2022/03/07 06:37:24;;;;;;;0.27;0.27;;;;;;;;;;5002459;28;20030;-81
2022/03/07 06:39:50;;;;;;;0.68;0.68;;;;;;;;;;5001791;28;20034;-81
2022/03/07 06:42:16;;;;;;;0.45;0.45;;;;;;;;;;5001915;28;20054;-81
2022/03/07 06:44:42;;;;;;;0.80;0.80;;;;;;;;;;4999365;28;20072;-83
2022/03/07 06:47:08;;;;;;;0.10;0.10;;;;;;;;;;4999436;28;20076;-83
2022/03/07 06:49:35;;;;;;;0.53;0.53;;;;;;;;;;5001920;28;20297;-82
2022/03/07 06:52:01;;;;;;;0.55;0.55;;;;;;;;;;5002351;28;20552;-82
2022/03/07 06:54:27;;;;;;;0.45;0.45;;;;;;;;;;5001530;28;20029;-83
2022/03/07 06:56:53;;;;;;;0.20;0.20;;;;;;;;;;5001921;28;20026;-81
2022/03/07 06:59:19;;;;;;;0.65;0.65;;;;;;;;;;5001501;28;20057;-83
2022/03/07 07:01:45;;;;;;;0.47;0.47;;;;;;;;;;5001803;28;20033;-86
2022/03/07 07:04:11;;;;;;;0.47;0.47;;;;;;;;;;5002052;28;20036;-87
2022/03/07 07:06:37;;;;;;;1.05;0.85;;;;;;;;;;5003491;28;20041;-85
2022/03/07 07:09:03;;;;;;;0.20;0.20;;;;;;;;;;5006381;28;20724;-80
2022/03/07 07:11:29;;;;;;;0.40;0.40;;;;;;;;;;5004373;28;20052;-81
2022/03/07 07:13:55;;;;;;;0.57;0.57;;;;;;;;;;5005930;28;20041;-80
2022/03/07 07:16:21;;;;;;;0.50;0.50;;;;;;;;;;5006244;28;20291;-81
2022/03/07 07:18:48;;;;;;;0.10;0.10;;;;;;;;;;5006289;28;20032;-82
2022/03/07 07:21:14;;;;;;;0.20;0.20;;;;;;;;;;5006631;28;20152;-82
2022/03/07 07:23:40;;;;;;;0.43;0.43;;;;;;;;;;5006740;28;20264;-81
2022/03/07 07:26:06;;;;;;;0.17;0.17;;;;;;;;;;5005371;28;20029;-81
2022/03/07 07:28:32;;;;;;;0.50;0.50;;;;;;;;;;5006547;28;20473;-81
2022/03/07 07:30:58;;;;;;;0.32;0.32;;;;;;;;;;5004619;28;20033;-81
2022/03/07 07:33:24;;;;;;;0.10;0.10;;;;;;;;;;5006181;28;20478;-80
2022/03/07 07:35:50;;;;;;;0.43;0.43;;;;;;;;;;5006490;28;20032;-82
2022/03/07 07:38:17;;;;;;;0.17;0.17;;;;;;;;;;5004444;28;20052;-82
2022/03/07 07:40:43;;;;;;;0.20;0.20;;;;;;;;;;5006127;28;20034;-82
2022/03/07 07:43:09;;;;;;;0.30;0.30;;;;;;;;;;5006287;28;20049;-81
2022/03/07 07:45:35;;;;;;;0.43;0.43;;;;;;;;;;5005200;28;20057;-82
2022/03/07 07:48:01;;;;;;;0.20;0.20;;;;;;;;;;5004654;28;20084;-84
2022/03/07 07:50:28;;;;;;;0.40;0.40;;;;;;;;;;5006126;28;20052;-84
2022/03/07 07:52:57;;;;;;;0.40;0.40;;;;;;;;;;5005940;28;20022;-84
2022/03/07 07:55:25;;;;;;;0.20;0.20;;;;;;;;;;5005788;28;20061;-84
2022/03/07 07:57:51;;;;;;;0.20;0.20;;;;;;;;;;5005518;28;20029;-85
2022/03/07 08:00:20;;;;;;;0.30;0.30;;;;;;;;;;5005462;28;20034;-84
2022/03/07 08:02:49;;;;;;;0.22;0.22;;;;;;;;;;5005787;28;20038;-84
2022/03/07 08:05:16;;;;;;;0.10;0.10;;;;;;;;;;5005606;28;20026;-85
2022/03/07 08:07:43;;;;;;;0.20;0.20;;;;;;;;;;5004182;28;20046;-84
2022/03/07 08:10:10;;;;;;;0.30;0.30;;;;;;;;;;5004963;28;20033;-85
2022/03/07 08:12:36;;;;;;;0.20;0.20;;;;;;;;;;5005071;28;20025;-84
2022/03/07 08:15:05;;;;;;;0.30;0.30;;;;;;;;;;5005148;28;20029;-85
2022/03/07 08:17:31;;;;;;;0.85;0.47;;;;;;;;;;5004348;28;20961;-85
2022/03/07 08:19:57;;;;;;;0.30;0.30;;;;;;;;;;5004517;28;20630;-85
2022/03/07 08:22:23;;;;;;;0.37;0.37;;;;;;;;;;5005089;28;20025;-85
2022/03/07 08:24:49;;;;;;;0.10;0.10;;;;;;;;;;5005283;28;20037;-85
2022/03/07 08:27:15;;;;;;;0.40;0.40;;;;;;;;;;5005018;28;20709;-85
2022/03/07 08:29:41;;;;;;;0.50;0.50;;;;;;;;;;5005554;28;20038;-85
2022/03/07 08:32:07;;;;;;;0.45;0.45;;;;;;;;;;5003557;28;20041;-85
2022/03/07 08:34:34;;;;;;;0.20;0.20;;;;;;;;;;5005155;28;20124;-84
2022/03/07 08:37:00;;;;;;;0.20;0.20;;;;;;;;;;5004406;28;20034;-85
2022/03/07 08:39:26;;;;;;;0.30;0.30;;;;;;;;;;4989264;28;20045;-85
2022/03/07 08:41:52;;;;;;;0.20;0.20;;;;;;;;;;5005136;28;20038;-85
2022/03/07 08:44:18;;;;;;;0.20;0.20;;;;;;;;;;5004507;28;20053;-85
2022/03/07 08:46:44;;;;;;;0.20;0.20;;;;;;;;;;5003420;28;20133;-85
2022/03/07 08:49:10;;;;;;;2.03;0.60;;;;;;;;;;5004806;28;20493;-85
2022/03/07 08:51:37;;;;;;;0.10;0.10;;;;;;;;;;5004907;28;20044;-85
2022/03/07 08:54:03;;;;;;;0.28;0.28;;;;;;;;;;5004861;28;20565;-85
2022/03/07 08:56:29;;;;;;;0.20;0.20;;;;;;;;;;4999965;28;20113;-84
2022/03/07 08:58:55;;;;;;;0.20;0.20;;;;;;;;;;5000737;28;20041;-85
2022/03/07 09:01:21;;;;;;;0.30;0.30;;;;;;;;;;5003026;28;20056;-85
2022/03/07 09:03:47;;;;;;;0.10;0.10;;;;;;;;;;5002979;28;20122;-86
2022/03/07 09:06:13;;;;;;;0.20;0.20;;;;;;;;;;5004541;28;20056;-82
2022/03/07 09:08:39;;;;;;;0.30;0.30;;;;;;;;;;5005403;28;20109;-83
2022/03/07 09:11:05;;;;;;;0.20;0.20;;;;;;;;;;5004143;28;20045;-83
2022/03/07 09:13:31;;;;;;;0.30;0.30;;;;;;;;;;5004474;28;20030;-82
2022/03/07 09:15:57;;;;;;;0.20;0.20;;;;;;;;;;5004244;28;20097;-83
2022/03/07 09:18:25;;;;;;;0.50;0.50;;;;;;;;;;5004505;28;20030;-83
2022/03/07 09:20:52;;;;;;;0.20;0.20;;;;;;;;;;5005156;28;20597;-85
2022/03/07 09:23:18;;;;;;;0.17;0.17;;;;;;;;;;5003183;28;20041;-82
2022/03/07 09:25:44;;;;;;;0.27;0.27;;;;;;;;;;5002635;28;20554;-82
2022/03/07 09:28:10;;;;;;;0.20;0.20;;;;;;;;;;5004211;28;20040;-83
2022/03/07 09:30:36;;;;;;;0.10;0.10;;;;;;;;;;5003570;28;20045;-83
2022/03/07 09:33:03;;;;;;;1.27;1.27;;;;;;;;;;5004128;28;20034;-83
2022/03/07 09:35:31;;;;;;;0.10;0.10;;;;;;;;;;5004216;28;20037;-83
2022/03/07 09:37:57;;;;;;;0.30;0.30;;;;;;;;;;5003681;28;20113;-83
2022/03/07 09:40:23;;;;;;;0.30;0.30;;;;;;;;;;5001999;28;20084;-82
2022/03/07 09:42:49;;;;;;;0.35;0.35;;;;;;;;;;5004058;28;20125;-83
2022/03/07 09:45:15;;;;;;;0.47;0.47;;;;;;;;;;5003562;28;20088;-82
2022/03/07 09:47:43;;;;;;;0.50;0.50;;;;;;;;;;5004251;28;20033;-83
2022/03/07 09:50:10;;;;;;;0.60;0.60;;;;;;;;;;5003354;28;20050;-83
2022/03/07 09:52:36;;;;;;;;;;;;;;;;;;5003841;28;20034;-82
2022/03/07 09:55:02;;;;;;;0.70;0.70;;;;;;;;;;5003392;28;19913;-82
2022/03/07 09:57:29;;;;;;;0.50;0.50;;;;;;;;;;5003459;28;20022;-83
2022/03/07 09:59:56;;;;;;;0.80;0.80;;;;;;;;;;4999931;28;20065;-82
2022/03/07 10:02:24;;;;;;;0.60;0.60;;;;;;;;;;5003579;28;20041;-83
2022/03/07 10:04:51;;;;;;;0.50;0.50;;;;;;;;;;5003334;28;20052;-83
2022/03/07 10:07:18;;;;;;;0.60;0.60;;;;;;;;;;5003293;28;20524;-83
2022/03/07 10:09:44;;;;;;;1.10;1.10;;;;;;;;;;5003037;28;20135;-83
2022/03/07 10:12:10;;;;;;;0.70;0.70;;;;;;;;;;5003335;28;20049;-83
2022/03/07 10:14:44;;;;;;;0.67;0.67;;;;;;;;;;5003091;28;20099;-83
2022/03/07 10:17:22;;;;;;;0.75;0.75;;;;;;;;;;5003197;28;20116;-83
2022/03/07 10:19:49;;;;;;;0.80;0.80;;;;;;;;;;5002666;28;20030;-83
2022/03/07 10:22:25;;;;;;;0.60;0.60;;;;;;;;;;5002816;28;20034;-82
2022/03/07 10:25:02;;;;;;;0.80;0.80;;;;;;;;;;5003159;28;20034;-83
2022/03/07 10:27:32;;;;;;;0.65;0.65;;;;;;;;;;4987523;28;20053;-82
2022/03/07 10:29:58;;;;;;;0.60;0.60;;;;;;;;;;4999526;28;20838;-83
2022/03/07 10:32:24;;;;;;;0.50;0.50;;;;;;;;;;5002777;28;20040;-83
2022/03/07 10:34:50;;;;;;;0.60;0.60;;;;;;;;;;5002818;28;20030;-83
2022/03/07 10:37:16;;;;;;;0.60;0.60;;;;;;;;;;5002915;28;20029;-83
2022/03/07 10:39:52;;;;;;;0.70;0.70;;;;;;;;;;5003039;28;20030;-83
2022/03/07 10:42:18;;;;;;;0.52;0.52;;;;;;;;;;5002053;28;21015;-83
2022/03/07 10:44:44;;;;;;;0.70;0.70;;;;;;;;;;5003963;28;20486;-83
2022/03/07 10:47:11;;;;;;;0.65;0.65;;;;;;;;;;5002783;28;20057;-83
2022/03/07 10:49:46;;;;;;;0.60;0.60;;;;;;;;;;5002833;28;20405;-83
2022/03/07 10:52:12;;;;;;;0.80;0.80;;;;;;;;;;5002659;28;20284;-83
2022/03/07 10:54:38;;;;;;;0.70;0.70;;;;;;;;;;5002568;28;20061;-82
2022/03/07 10:57:07;;;;;;;0.70;0.70;;;;;;;;;;4993407;28;20057;-82
2022/03/07 10:59:34;;;;;;;0.70;0.70;;;;;;;;;;5002408;28;20038;-83
2022/03/07 11:02:00;;;;;;;;;;;;;;;;;;5003197;28;20034;-83
2022/03/07 11:04:27;;;;;;;0.50;0.50;;;;;;;;;;5002680;28;19924;-82
2022/03/07 11:06:53;;;;;;;0.45;0.45;;;;;;;;;;5001281;28;20048;-85
2022/03/07 11:09:19;;;;;;;0.80;0.80;;;;;;;;;;5000953;28;20053;-84
2022/03/07 11:11:45;;;;;;;0.70;0.70;;;;;;;;;;5003100;28;20284;-85
2022/03/07 11:14:12;;;;;;;0.70;0.70;;;;;;;;;;5002584;28;20022;-85
2022/03/07 11:16:39;;;;;;;0.80;0.80;;;;;;;;;;5002768;28;20114;-85
2022/03/07 11:19:06;;;;;;;0.70;0.70;;;;;;;;;;5002472;28;20563;-85
2022/03/07 11:21:33;;;;;;;0.65;0.65;;;;;;;;;;5002783;28;20064;-85
2022/03/07 11:23:59;;;;;;;0.50;0.50;;;;;;;;;;5003102;28;20405;-84
2022/03/07 11:26:26;;;;;;;0.70;0.70;;;;;;;;;;5015967;28;20034;-85
2022/03/07 11:28:52;;;;;;;0.70;0.70;;;;;;;;;;4997980;28;20031;-86
2022/03/07 11:31:22;;;;;;;0.70;0.70;;;;;;;;;;5001268;28;20069;-84
2022/03/07 11:33:49;;;;;;;0.70;0.70;;;;;;;;;;5002016;28;20026;-84
2022/03/07 11:36:17;;;;;;;0.70;0.70;;;;;;;;;;5001822;28;20087;-85
2022/03/07 11:39:01;;;;;;;0.60;0.60;;;;;;;;;;5002448;28;20889;-84
2022/03/07 11:41:28;;;;;;;0.60;0.60;;;;;;;;;;5005051;28;20460;-84
2022/03/07 11:43:56;;;;;;;0.73;0.73;;;;;;;;;;5001384;28;20109;-83
2022/03/07 11:46:29;;;;;;;0.70;0.70;;;;;;;;;;5001311;28;20037;-84
2022/03/07 11:48:55;;;;;;;0.60;0.60;;;;;;;;;;5003015;28;20501;-84
2022/03/07 11:51:23;;;;;;;0.63;0.63;;;;;;;;;;5005312;28;20041;-84
2022/03/07 11:53:50;;;;;;;0.63;0.63;;;;;;;;;;5004855;28;20116;-84
2022/03/07 11:56:17;;;;;;;0.60;0.60;;;;;;;;;;5002432;28;20030;-84
2022/03/07 11:58:48;;;;;;;0.70;0.70;;;;;;;;;;5005310;28;20042;-84
2022/03/07 12:01:14;;;;;;;0.70;0.70;;;;;;;;;;5005336;28;20042;-83
2022/03/07 12:03:40;;;;;;;0.60;0.60;;;;;;;;;;5005771;28;20109;-84
2022/03/07 12:06:10;;;;;;;0.50;0.50;;;;;;;;;;5005874;28;20391;-84
2022/03/07 12:08:43;;;;;;;0.70;0.70;;;;;;;;;;5005917;28;20032;-84
2022/03/07 12:11:10;;;;;;;0.70;0.70;;;;;;;;;;5004894;28;20140;-84
2022/03/07 12:13:37;;;;;;;;;;;;;;;;;;5005289;28;20701;-84
2022/03/07 12:16:03;;;;;;;0.63;0.63;;;;;;;;;;5004386;28;19920;-85
2022/03/07 12:18:30;;;;;;;0.60;0.60;;;;;;;;;;4993372;28;20056;-84
2022/03/07 12:20:57;;;;;;;0.50;0.50;;;;;;;;;;5001692;28;20083;-85
2022/03/07 12:23:23;;;;;;;;;;;;;;;;;;5005747;28;20030;-84
2022/03/07 12:25:55;;;;;;;0.85;0.85;;;;;;;;;;5005391;28;20466;-83
2022/03/07 12:28:21;;;;;;;0.60;0.60;;;;;;;;;;5004872;28;20498;-84
2022/03/07 12:30:47;;;;;;;0.60;0.60;;;;;;;;;;5004480;28;20053;-84
2022/03/07 12:33:13;;;;;;;0.70;0.70;;;;;;;;;;5005047;28;20029;-84
2022/03/07 12:35:39;;;;;;;0.70;0.70;;;;;;;;;;5005342;28;20084;-84
2022/03/07 12:38:06;;;;;;;0.53;0.53;;;;;;;;;;5004087;28;20017;-84
2022/03/07 12:40:33;;;;;;;0.60;0.60;;;;;;;;;;5004729;28;20087;-84
2022/03/07 12:42:59;;;;;;;1.30;1.30;;;;;;;;;;5005139;28;20026;-83
2022/03/07 12:45:25;;;;;;;0.60;0.60;;;;;;;;;;5004542;28;20824;-84
2022/03/07 12:47:53;;;;;;;0.70;0.70;;;;;;;;;;5005270;28;20030;-85
2022/03/07 12:50:23;;;;;;;0.60;0.60;;;;;;;;;;5004679;28;20049;-84
2022/03/07 12:52:49;;;;;;;0.60;0.60;;;;;;;;;;5004615;28;20088;-83
2022/03/07 12:55:16;;;;;;;0.50;0.50;;;;;;;;;;5004786;28;20029;-84
2022/03/07 12:57:43;;;;;;;0.70;0.70;;;;;;;;;;5004896;28;20030;-84
2022/03/07 13:00:11;;;;;;;0.60;0.60;;;;;;;;;;5004464;28;20049;-85
2022/03/07 13:02:41;;;;;;;0.60;0.60;;;;;;;;;;5004971;28;20146;-84
2022/03/07 13:05:12;;;;;;;0.77;0.77;;;;;;;;;;5003164;28;20026;-84
2022/03/07 13:07:38;;;;;;;0.60;0.60;;;;;;;;;;5004198;28;20524;-84
2022/03/07 13:10:08;;;;;;;0.57;0.57;;;;;;;;;;5004029;28;20026;-84
2022/03/07 13:12:35;;;;;;;0.60;0.60;;;;;;;;;;5003778;28;20465;-84
2022/03/07 13:15:01;;;;;;;;;;;;;;;;;;5004674;28;20112;-84
2022/03/07 13:17:27;;;;;;;0.52;0.52;;;;;;;;;;5003969;28;20024;-84
2022/03/07 13:19:54;;;;;;;0.50;0.50;;;;;;;;;;5002477;28;20100;-85
2022/03/07 13:22:20;;;;;;;0.60;0.60;;;;;;;;;;5003714;28;20034;-84
2022/03/07 13:24:54;;;;;;;0.70;0.70;;;;;;;;;;5003724;28;20034;-84
2022/03/07 13:27:22;;;;;;;0.60;0.60;;;;;;;;;;5003733;28;20730;-84
2022/03/07 13:29:48;;;;;;;0.60;0.60;;;;;;;;;;5004680;28;21048;-84
2022/03/07 13:32:15;;;;;;;0.60;0.60;;;;;;;;;;5003646;28;20025;-84
2022/03/07 13:34:44;;;;;;;0.50;0.50;;;;;;;;;;5003757;28;20036;-84
2022/03/07 13:37:11;;;;;;;0.60;0.60;;;;;;;;;;5003407;28;20029;-84
2022/03/07 13:39:38;;;;;;;0.57;0.57;;;;;;;;;;5003149;28;20026;-85
2022/03/07 13:42:04;;;;;;;0.75;0.75;;;;;;;;;;5003716;28;20036;-84
2022/03/07 13:44:31;;;;;;;0.60;0.60;;;;;;;;;;5003789;28;20037;-83
2022/03/07 13:46:59;;;;;;;0.60;0.60;;;;;;;;;;5003299;28;20033;-84
2022/03/07 13:49:28;;;;;;;0.50;0.50;;;;;;;;;;5003147;28;20116;-84
2022/03/07 13:51:57;;;;;;;0.50;0.50;;;;;;;;;;5003545;28;20117;-84
2022/03/07 13:54:24;;;;;;;0.52;0.52;;;;;;;;;;5003198;28;20121;-84
2022/03/07 13:56:50;;;;;;;0.50;0.50;;;;;;;;;;4995656;28;20022;-84
2022/03/07 13:59:17;;;;;;;0.60;0.60;;;;;;;;;;5001783;28;20150;-84
2022/03/07 14:01:43;;;;;;;0.82;0.82;;;;;;;;;;5003418;28;20157;-83
2022/03/07 14:04:09;;;;;;;0.60;0.60;;;;;;;;;;5003112;28;20036;-82
2022/03/07 14:06:35;;;;;;;0.60;0.60;;;;;;;;;;5003475;28;20036;-82
2022/03/07 14:09:01;;;;;;;0.68;0.68;;;;;;;;;;5003828;28;20034;-81
2022/03/07 14:11:28;;;;;;;0.60;0.60;;;;;;;;;;5003602;28;20050;-81
2022/03/07 14:13:56;;;;;;;0.50;0.50;;;;;;;;;;5003370;28;20042;-82
2022/03/07 14:16:22;;;;;;;0.68;0.68;;;;;;;;;;5002994;28;20030;-81
2022/03/07 14:18:49;;;;;;;0.63;0.63;;;;;;;;;;5002797;28;20030;-81
2022/03/07 14:21:15;;;;;;;0.60;0.60;;;;;;;;;;5003104;28;20272;-81
2022/03/07 14:23:41;;;;;;;0.60;0.60;;;;;;;;;;5001415;28;20087;-81
2022/03/07 14:26:07;;;;;;;0.50;0.50;;;;;;;;;;5002758;28;20116;-81
2022/03/07 14:28:34;;;;;;;0.50;0.50;;;;;;;;;;5002922;28;20037;-81
2022/03/07 14:31:00;;;;;;;0.60;0.60;;;;;;;;;;5002829;28;20049;-81
2022/03/07 14:33:26;;;;;;;0.60;0.60;;;;;;;;;;5002424;28;20030;-81
2022/03/07 14:35:52;;;;;;;0.60;0.60;;;;;;;;;;5003402;28;20111;-82
2022/03/07 14:38:19;;;;;;;0.50;0.50;;;;;;;;;;5003115;28;20034;-81
2022/03/07 14:40:48;;;;;;;0.60;0.60;;;;;;;;;;5003047;28;20021;-81
2022/03/07 14:43:14;;;;;;;0.93;0.93;;;;;;;;;;5002554;28;20029;-82